Time;durP1;ratioP1;P1;durP2;ratioP2;P2;SDS_P1;SDS_P2;PMS_P1;PMS_P2;Temp;Humidity;BMP_temperature;BMP_pressure;BME280_temperature;BME280_humidity;BME280_pressure;Samples;Min_cycle;Max_cycle;Signal;HPM_P1;HPM_P2
2021/12/26 00:00:47;;;;;;;5.88;4.13;;;3.60;99.90;;;3.62;96.14;99834.13;5015279;28;20206;-64
2021/12/26 00:03:22;;;;;;;7.13;4.78;;;3.60;99.90;;;3.55;96.15;99828.50;5029597;28;20201;-64
2021/12/26 00:05:50;;;;;;;8.25;5.05;;;3.60;99.90;;;3.51;96.49;99824.41;5032998;28;20230;-63
2021/12/26 00:08:17;;;;;;;9.82;4.75;;;3.50;99.90;;;3.50;96.27;99821.91;5031188;28;20194;-64
2021/12/26 00:10:44;;;;;;;5.60;4.35;;;3.50;99.90;;;3.50;96.56;99819.31;5022160;28;20305;-63
2021/12/26 00:13:11;;;;;;;7.88;5.20;;;3.50;99.90;;;3.52;96.24;99820.91;5031395;28;20212;-63
2021/12/26 00:15:38;;;;;;;3.80;3.00;;;3.50;99.90;;;3.55;95.92;99819.91;5030232;28;20233;-63
2021/12/26 00:18:05;;;;;;;7.53;5.50;;;3.50;99.90;;;3.59;96.07;99814.50;5033234;28;20249;-63
2021/12/26 00:20:32;;;;;;;6.30;4.80;;;3.60;99.90;;;3.61;96.23;99807.50;5032445;28;20253;-64
2021/12/26 00:22:59;;;;;;;5.38;4.68;;;3.60;99.90;;;3.65;95.97;99821.06;5026340;28;20198;-63
2021/12/26 00:25:27;;;;;;;9.00;5.80;;;3.70;99.90;;;3.65;95.67;99818.47;5031852;28;20221;-63
2021/12/26 00:27:54;;;;;;;8.65;5.63;;;3.70;99.90;;;3.63;95.77;99815.16;5030969;28;20572;-63
2021/12/26 00:30:22;;;;;;;8.18;5.60;;;3.60;99.90;;;3.67;95.64;99820.06;5030601;28;20662;-63
2021/12/26 00:32:49;;;;;;;9.68;5.53;;;3.60;99.90;;;3.66;94.87;99827.88;5011648;28;20199;-63
2021/12/26 00:35:20;;;;;;;9.02;6.03;;;3.70;99.90;;;3.69;94.78;99823.38;5029806;28;20306;-63
2021/12/26 00:37:48;;;;;;;5.68;4.82;;;3.70;99.90;;;3.63;94.56;99820.31;5032076;28;20202;-63
2021/12/26 00:40:20;;;;;;;6.93;5.18;;;3.60;99.90;;;3.63;94.74;99820.31;5029172;28;20730;-63
2021/12/26 00:42:49;;;;;;;7.90;5.40;;;3.60;99.90;;;3.54;94.91;99820.81;5031959;28;20202;-63
2021/12/26 00:45:17;;;;;;;8.45;5.10;;;3.50;99.90;;;3.58;94.43;99822.31;5030932;28;20237;-63
2021/12/26 00:47:44;;;;;;;6.90;4.28;;;3.60;99.90;;;3.58;94.45;99809.41;5029621;28;20643;-63
2021/12/26 00:50:16;;;;;;;7.82;5.20;;;3.60;99.90;;;3.59;94.65;99806.75;5030477;28;20206;-63
2021/12/26 00:52:43;;;;;;;6.88;3.95;;;3.60;99.90;;;3.57;94.43;99798.28;5030394;28;20284;-63
2021/12/26 00:55:12;;;;;;;8.35;5.55;;;3.60;99.90;;;3.60;94.81;99805.03;5029839;28;20222;-63
2021/12/26 00:57:40;;;;;;;11.27;6.55;;;3.60;99.90;;;3.57;94.36;99805.19;5031156;28;20245;-63
2021/12/26 01:00:14;;;;;;;10.13;5.70;;;3.60;99.90;;;3.58;94.74;99797.34;5029332;28;20308;-63
2021/12/26 01:02:41;;;;;;;6.80;4.63;;;3.60;99.90;;;3.62;94.21;99808.34;5014424;28;20209;-63
2021/12/26 01:05:09;;;;;;;9.88;4.80;;;3.60;99.90;;;3.55;94.75;99807.03;5031015;28;20264;-64
2021/12/26 01:10:10;;;;;;;3.40;3.08;;;3.60;99.90;;;3.58;94.55;99802.50;5031893;28;20198;-63
2021/12/26 01:12:39;;;;;;;8.13;5.72;;;3.60;99.90;;;3.52;94.20;99805.44;5029710;28;20285;-64
2021/12/26 01:15:09;;;;;;;11.30;5.40;;;3.50;99.90;;;3.48;95.05;99811.69;5031316;28;20275;-63
2021/12/26 01:17:41;;;;;;;8.00;5.35;;;3.50;99.90;;;3.45;94.94;99808.47;5012134;28;20293;-63
2021/12/26 01:20:28;;;;;;;8.10;6.13;;;3.50;99.90;;;3.32;95.32;99813.47;5031568;28;20709;-63
2021/12/26 01:22:55;;;;;;;8.68;5.78;;;3.30;99.90;;;3.39;94.74;99816.50;5030360;28;20209;-63
2021/12/26 01:25:22;;;;;;;8.07;5.82;;;3.40;99.90;;;3.42;95.13;99821.50;5030166;28;20345;-63
2021/12/26 01:27:48;;;;;;;8.95;6.05;;;3.40;99.90;;;3.43;95.26;99826.56;5028491;28;20209;-63
2021/12/26 01:30:15;;;;;;;7.55;4.43;;;3.40;99.90;;;3.46;95.12;99823.84;5031644;28;20224;-64
2021/12/26 01:32:42;;;;;;;11.23;6.43;;;3.50;99.90;;;3.48;94.91;99828.91;5030488;28;20204;-63
2021/12/26 01:37:45;;;;;;;7.72;4.97;;;3.50;99.90;;;3.52;94.47;99822.66;5028405;28;20214;-65
2021/12/26 01:40:12;;;;;;;11.85;4.85;;;3.50;99.90;;;3.38;94.37;99823.44;5031210;28;20201;-68
2021/12/26 01:42:39;;;;;;;7.72;5.32;;;3.40;99.90;;;3.41;94.29;99822.44;5026945;28;20212;-68
2021/12/26 01:45:07;;;;;;;8.60;4.90;;;3.40;99.90;;;3.41;94.16;99825.81;5029392;28;20223;-65
2021/12/26 01:47:34;;;;;;;7.55;4.93;;;3.40;99.90;;;3.33;94.64;99828.00;5013025;28;20574;-65
2021/12/26 01:50:01;;;;;;;7.45;4.38;;;3.30;99.90;;;3.37;94.67;99821.75;5030394;28;20302;-68
2021/12/26 01:52:28;;;;;;;6.72;5.00;;;3.30;99.90;;;3.36;94.47;99820.13;5023340;28;20205;-65
2021/12/26 01:55:21;;;;;;;7.35;4.53;;;3.40;99.90;;;3.40;94.14;99821.59;5031248;28;20244;-66
2021/12/26 01:57:51;;;;;;;8.07;5.40;;;3.40;99.90;;;3.34;94.12;99823.69;5027169;28;20202;-68
2021/12/26 02:00:20;;;;;;;8.80;5.05;;;3.30;99.90;;;3.22;94.84;99829.50;5029882;28;20563;-65
2021/12/26 02:02:49;;;;;;;7.85;5.25;;;3.20;99.90;;;3.22;94.91;99826.91;5024385;28;20201;-65
2021/12/26 02:05:17;;;;;;;8.48;5.50;;;3.20;99.90;;;3.22;95.38;99824.34;5027466;28;20241;-65
2021/12/26 02:07:44;;;;;;;9.40;6.80;;;3.20;99.90;;;3.18;94.81;99810.78;5029380;28;20673;-65
2021/12/26 02:10:11;;;;;;;7.95;6.15;;;3.20;99.90;;;3.12;95.04;99822.28;5017556;28;20587;-68
2021/12/26 02:12:39;;;;;;;6.47;4.38;;;3.10;99.90;;;3.17;95.48;99817.69;5011962;28;20202;-65
2021/12/26 02:15:07;;;;;;;4.70;3.40;;;3.20;99.90;;;3.20;95.04;99818.44;5015381;28;20206;-66
2021/12/26 02:17:34;;;;;;;7.78;4.95;;;3.20;99.90;;;3.22;94.99;99809.72;5019780;28;20205;-67
2021/12/26 02:23:15;;;;;;;6.72;4.55;;;3.30;99.90;;;3.25;95.07;99819.88;5025370;28;20213;-66
2021/12/26 02:28:27;;;;;;;8.13;4.40;;;3.30;99.90;;;3.33;94.69;99809.94;5032840;28;20200;-68
2021/12/26 02:30:56;;;;;;;6.70;4.15;;;3.30;99.90;;;3.36;94.25;99816.69;5035015;28;20229;-65
2021/12/26 02:33:24;;;;;;;6.35;4.75;;;3.40;99.90;;;3.40;94.48;99813.03;5032050;28;20252;-68
2021/12/26 02:35:51;;;;;;;8.07;4.57;;;3.40;99.90;;;3.39;94.33;99811.34;5030133;28;20640;-68
2021/12/26 02:38:19;;;;;;;7.70;4.70;;;3.40;99.90;;;3.44;94.68;99819.69;5034458;28;20749;-67
2021/12/26 02:40:48;;;;;;;5.75;4.00;;;3.40;99.90;;;3.46;94.59;99815.25;5032571;28;20210;-65
2021/12/26 02:43:20;;;;;;;8.43;5.10;;;3.40;99.90;;;3.50;93.83;99816.75;5031566;28;20665;-66
2021/12/26 02:45:47;;;;;;;12.45;4.55;;;3.50;99.90;;;3.53;93.97;99820.00;5031465;28;20222;-66
2021/12/26 02:48:15;;;;;;;4.47;3.10;;;3.60;99.90;;;3.48;93.47;99816.00;5027149;28;20245;-68
2021/12/26 02:50:44;;;;;;;9.05;4.75;;;3.50;99.90;;;3.48;93.30;99811.69;5030929;28;20206;-67
2021/12/26 02:53:20;;;;;;;6.00;3.80;;;3.50;99.90;;;3.43;93.07;99812.88;5034501;28;20297;-66
2021/12/26 02:55:52;;;;;;;7.60;5.05;;;3.40;99.90;;;3.44;93.17;99817.09;5033127;28;20233;-65
2021/12/26 02:58:20;;;;;;;8.15;5.15;;;3.40;99.90;;;3.46;93.19;99810.94;5025643;28;20202;-67
2021/12/26 03:00:57;;;;;;;5.72;3.22;;;3.50;99.90;;;3.49;93.61;99817.69;5014177;28;20207;-68
2021/12/26 03:03:25;;;;;;;8.90;4.72;;;3.50;99.90;;;3.50;93.21;99815.00;5014749;28;20631;-65
2021/12/26 03:06:03;;;;;;;5.15;3.97;;;3.50;99.90;;;3.50;93.05;99814.16;5029441;28;20226;-67
2021/12/26 03:08:31;;;;;;;9.32;5.32;;;3.50;99.90;;;3.53;92.94;99806.28;5031915;28;20198;-66
2021/12/26 03:10:59;;;;;;;5.78;3.95;;;3.50;99.90;;;3.49;92.45;99809.94;5030837;28;20201;-68
2021/12/26 03:13:28;;;;;;;4.13;3.65;;;3.50;99.90;;;3.51;92.54;99811.53;5033977;28;20198;-65
2021/12/26 03:15:55;;;;;;;8.75;4.95;;;3.50;99.90;;;3.46;92.87;99810.09;5031294;28;20771;-66
2021/12/26 03:18:22;;;;;;;6.25;4.30;;;3.40;99.90;;;3.45;92.67;99801.53;5034459;28;20209;-66
2021/12/26 03:20:51;;;;;;;7.30;3.95;;;3.50;99.90;;;3.50;92.72;99809.00;5030385;28;20213;-68
2021/12/26 03:23:25;;;;;;;12.43;4.22;;;3.50;99.90;;;3.52;92.83;99807.19;5032257;28;20284;-67
2021/12/26 03:25:58;;;;;;;5.55;3.75;;;3.50;99.90;;;3.57;93.24;99815.50;5025767;28;20313;-65
2021/12/26 03:28:28;;;;;;;6.40;4.97;;;3.60;99.90;;;3.53;92.48;99808.84;5025187;28;20291;-65
2021/12/26 03:30:56;;;;;;;5.82;4.60;;;3.50;99.90;;;3.46;92.43;99807.53;5032874;28;20198;-67
2021/12/26 03:33:25;;;;;;;7.10;4.30;;;3.50;99.90;;;3.47;92.60;99817.75;5026190;28;20655;-68
2021/12/26 03:35:52;;;;;;;7.70;4.75;;;3.50;99.90;;;3.48;92.47;99821.16;5032414;28;20226;-68
2021/12/26 03:38:21;;;;;;;5.85;4.72;;;3.50;99.90;;;3.52;92.26;99812.34;5011240;28;20198;-65
2021/12/26 03:40:52;;;;;;;6.95;4.60;;;3.50;99.90;;;3.51;92.17;99806.38;5022988;28;20607;-66
2021/12/26 03:43:19;;;;;;;5.32;3.90;;;3.50;99.90;;;3.52;92.51;99808.00;5028137;28;20203;-67
2021/12/26 03:45:50;;;;;;;7.70;4.43;;;3.50;99.90;;;3.56;92.07;99806.91;5027366;28;20232;-68
2021/12/26 03:48:19;;;;;;;9.27;3.63;;;3.60;99.90;;;3.59;91.85;99805.94;5014290;28;20200;-67
2021/12/26 03:50:46;;;;;;;6.70;4.53;;;3.60;99.90;;;3.63;91.73;99799.69;5029331;28;20692;-67
2021/12/26 03:53:15;;;;;;;7.32;4.80;;;3.70;99.90;;;3.55;91.48;99801.84;5032759;28;20645;-64
2021/12/26 03:55:43;;;;;;;6.80;4.78;;;3.60;99.90;;;3.57;92.02;99816.34;5023149;28;20230;-68
2021/12/26 03:58:10;;;;;;;8.13;4.95;;;3.60;99.90;;;3.55;91.98;99807.03;5020812;28;20241;-68
2021/12/26 04:00:39;;;;;;;6.65;4.78;;;3.50;99.90;;;3.56;92.36;99803.50;5023109;28;20214;-65
2021/12/26 04:03:06;;;;;;;5.22;3.63;;;3.50;99.90;;;3.56;92.59;99798.34;5030779;28;20198;-67
2021/12/26 04:05:34;;;;;;;8.75;4.70;;;3.50;99.90;;;3.53;92.12;99795.97;5027175;28;20233;-68
2021/12/26 04:08:03;;;;;;;8.55;5.07;;;3.50;99.90;;;3.53;92.72;99806.28;5013546;28;20580;-66
2021/12/26 04:10:31;;;;;;;7.95;5.35;;;3.50;99.90;;;3.56;92.28;99806.09;5012477;28;20229;-66
2021/12/26 04:12:58;;;;;;;10.10;5.80;;;3.60;99.90;;;3.53;92.01;99803.69;5032692;28;20229;-64
2021/12/26 04:15:30;;;;;;;7.65;5.15;;;3.60;99.90;;;3.54;92.11;99800.19;5030125;28;20206;-67
2021/12/26 04:17:57;;;;;;;5.45;4.15;;;3.50;99.90;;;3.55;91.80;99801.84;5024591;28;20201;-65
2021/12/26 04:20:28;;;;;;;9.82;5.00;;;3.60;99.90;;;3.55;91.96;99807.84;5031987;28;20206;-67
2021/12/26 04:22:57;;;;;;;6.25;4.15;;;3.50;99.90;;;3.54;92.13;99795.88;5029750;28;20224;-65
2021/12/26 04:25:25;;;;;;;9.15;5.53;;;3.50;99.90;;;3.50;92.31;99804.69;5026799;28;20229;-67
2021/12/26 04:27:52;;;;;;;8.10;4.90;;;3.50;99.90;;;3.47;92.97;99804.84;5031242;28;20198;-66
2021/12/26 04:30:20;;;;;;;8.25;5.22;;;3.50;99.90;;;3.50;92.13;99794.38;5031117;28;20198;-66
2021/12/26 04:32:47;;;;;;;7.80;5.55;;;3.60;99.90;;;3.51;92.01;99793.47;5031619;28;20204;-67
2021/12/26 04:35:16;;;;;;;8.25;5.68;;;3.50;99.90;;;3.47;91.73;99804.03;5022118;28;20569;-68
2021/12/26 04:37:43;;;;;;;9.05;5.38;;;3.50;99.90;;;3.47;91.66;99789.38;5030917;28;20210;-67
2021/12/26 04:40:14;;;;;;;5.47;3.53;;;3.50;99.90;;;3.51;92.14;99795.22;5020546;28;20203;-66
2021/12/26 04:42:44;;;;;;;8.30;5.75;;;3.50;99.90;;;3.47;91.77;99791.16;5010969;28;20675;-67
2021/12/26 04:45:14;;;;;;;6.40;4.10;;;3.50;99.90;;;3.48;91.66;99795.38;5025084;28;20257;-68
2021/12/26 04:47:42;;;;;;;6.20;3.53;;;3.50;99.90;;;3.45;92.06;99796.38;5012112;28;20206;-68
2021/12/26 04:50:14;;;;;;;9.15;5.53;;;3.40;99.90;;;3.46;92.45;99797.22;5039538;28;20198;-66
2021/12/26 04:52:44;;;;;;;8.57;5.72;;;3.50;99.90;;;3.49;92.47;99794.47;5029186;28;20202;-67
2021/12/26 04:55:14;;;;;;;9.20;5.40;;;3.50;99.90;;;3.53;92.35;99803.69;5030377;28;20212;-66
2021/12/26 04:57:41;;;;;;;6.40;4.80;;;3.50;99.90;;;3.55;91.93;99804.44;5031004;28;20292;-66
2021/12/26 05:00:12;;;;;;;9.35;6.05;;;3.50;99.90;;;3.48;91.84;99803.94;5030976;28;20749;-67
2021/12/26 05:02:40;;;;;;;10.98;6.95;;;3.50;99.90;;;3.48;91.45;99806.53;5018298;28;20199;-65
2021/12/26 05:05:09;;;;;;;8.57;5.15;;;3.50;99.90;;;3.48;91.16;99805.69;5015865;28;20199;-67
2021/12/26 05:07:38;;;;;;;7.55;5.32;;;3.50;99.90;;;3.48;91.64;99803.94;5027758;28;20194;-67
2021/12/26 05:10:08;;;;;;;7.90;5.53;;;3.50;99.90;;;3.50;90.97;99809.00;5023447;28;20209;-69
2021/12/26 05:12:36;;;;;;;10.07;5.88;;;3.50;99.90;;;3.51;91.40;99801.22;5029064;28;20198;-68
2021/12/26 05:15:08;;;;;;;8.50;5.57;;;3.50;99.90;;;3.54;91.60;99806.19;5011706;28;20210;-65
2021/12/26 05:17:35;;;;;;;10.27;6.10;;;3.60;99.90;;;3.56;92.07;99799.19;5021444;28;20209;-66
2021/12/26 05:20:04;;;;;;;7.70;4.72;;;3.60;99.90;;;3.57;91.15;99797.44;5028630;28;20208;-67
2021/12/26 05:22:31;;;;;;;12.23;7.10;;;3.60;99.90;;;3.61;91.34;99801.50;5028900;28;20244;-66
2021/12/26 05:24:57;;;;;;;9.05;5.85;;;3.60;99.90;;;3.58;91.53;99802.50;5030552;28;20202;-67
2021/12/26 05:27:25;;;;;;;11.75;5.60;;;3.60;99.90;;;3.59;91.74;99805.94;5028069;28;20297;-66
2021/12/26 05:29:52;;;;;;;11.35;6.30;;;3.60;99.90;;;3.58;91.46;99802.50;5031371;28;20201;-68
2021/12/26 05:32:19;;;;;;;9.07;5.53;;;3.60;99.90;;;3.61;91.81;99798.94;5028389;28;20277;-67
2021/12/26 05:34:46;;;;;;;9.25;5.55;;;3.60;99.90;;;3.57;91.38;99794.88;5031525;28;20209;-68
2021/12/26 05:37:13;;;;;;;5.70;3.45;;;3.60;99.90;;;3.56;91.59;99793.19;5015609;28;20234;-68
2021/12/26 05:39:42;;;;;;;12.52;6.07;;;3.50;99.90;;;3.57;91.26;99795.69;5010971;28;20207;-66
2021/12/26 05:42:15;;;;;;;9.02;4.82;;;3.60;99.90;;;3.56;91.88;99800.94;5016367;28;20206;-64
2021/12/26 05:44:44;;;;;;;8.90;4.40;;;3.50;99.90;;;3.53;91.88;99798.53;5019912;28;20221;-66
2021/12/26 05:47:12;;;;;;;8.57;5.20;;;3.50;99.90;;;3.51;92.37;99796.06;5011546;28;20353;-68
2021/12/26 05:49:39;;;;;;;8.40;4.90;;;3.50;99.90;;;3.49;92.81;99797.84;5011060;28;20294;-65
2021/12/26 05:52:08;;;;;;;9.73;5.50;;;3.50;99.90;;;3.50;93.00;99803.84;5031595;28;20194;-67
2021/12/26 05:54:35;;;;;;;9.38;5.25;;;3.50;99.90;;;3.53;93.39;99804.53;5029703;28;20198;-67
2021/12/26 05:57:04;;;;;;;9.88;6.40;;;3.50;99.90;;;3.52;93.52;99802.03;5030468;28;20249;-69
2021/12/26 05:59:32;;;;;;;11.82;7.00;;;3.50;99.90;;;3.50;93.02;99801.28;5028128;28;20209;-67
2021/12/26 06:01:59;;;;;;;10.73;5.40;;;3.50;99.90;;;3.50;92.88;99809.84;5028902;28;20208;-65
2021/12/26 06:04:26;;;;;;;9.40;5.47;;;3.50;99.90;;;3.46;93.17;99808.38;5034236;28;20285;-65
2021/12/26 06:06:53;;;;;;;11.27;5.55;;;3.40;99.90;;;3.43;93.82;99810.28;5021670;28;20237;-67
2021/12/26 06:09:21;;;;;;;10.23;6.30;;;3.40;99.90;;;3.42;93.65;99796.56;5031540;28;20202;-67
2021/12/26 06:11:48;;;;;;;8.43;5.78;;;3.40;99.90;;;3.41;93.88;99796.66;5019287;28;20571;-67
2021/12/26 06:14:14;;;;;;;11.65;6.32;;;3.40;99.90;;;3.37;94.10;99805.44;5014257;28;20199;-65
2021/12/26 06:16:42;;;;;;;11.23;6.47;;;3.30;99.90;;;3.37;93.72;99803.72;5033315;28;20222;-68
2021/12/26 06:19:09;;;;;;;13.55;6.45;;;3.30;99.90;;;3.24;94.06;99791.59;5031489;28;20206;-67
2021/12/26 06:21:36;;;;;;;12.35;5.60;;;3.20;99.90;;;3.24;94.09;99799.34;5033258;28;20277;-66
2021/12/26 06:24:04;;;;;;;12.68;7.28;;;3.20;99.90;;;3.22;94.35;99788.25;5033361;28;20232;-65
2021/12/26 06:26:31;;;;;;;9.15;5.20;;;3.20;99.90;;;3.25;94.71;99793.25;5013718;28;20686;-68
2021/12/26 06:28:58;;;;;;;10.43;5.28;;;3.20;99.90;;;3.27;93.77;99799.16;5014880;28;20212;-67
2021/12/26 06:31:25;;;;;;;11.35;5.70;;;3.30;99.90;;;3.22;94.54;99801.13;5024741;28;20370;-67
2021/12/26 06:33:52;;;;;;;8.20;5.45;;;3.20;99.90;;;3.19;93.72;99798.75;5021508;28;20229;-68
2021/12/26 06:36:21;;;;;;;9.15;5.25;;;3.20;99.90;;;3.17;94.73;99791.09;5036654;28;20225;-68
2021/12/26 06:38:49;;;;;;;10.75;5.85;;;3.10;99.90;;;3.14;94.44;99796.41;5031696;28;20216;-65
2021/12/26 06:41:16;;;;;;;8.30;5.15;;;3.10;99.90;;;3.17;94.31;99788.53;5032919;28;20201;-65
2021/12/26 06:43:44;;;;;;;9.07;5.80;;;3.20;99.90;;;3.16;94.29;99792.00;5023660;28;21081;-68
2021/12/26 06:46:11;;;;;;;11.45;5.68;;;3.20;99.90;;;3.23;94.65;99797.66;5021193;28;20230;-67
2021/12/26 06:48:41;;;;;;;8.80;5.28;;;3.20;99.90;;;3.25;94.78;99796.66;5022345;28;20194;-65
2021/12/26 06:51:08;;;;;;;9.00;5.65;;;3.20;99.90;;;3.22;94.78;99796.81;5026446;28;20194;-68
2021/12/26 06:53:36;;;;;;;10.13;5.68;;;3.20;99.90;;;3.22;94.83;99793.41;5016455;28;20186;-68
2021/12/26 06:56:04;;;;;;;5.93;4.05;;;3.20;99.90;;;3.21;94.80;99795.19;5013379;28;20415;-67
2021/12/26 06:58:31;;;;;;;11.45;6.05;;;3.20;99.90;;;3.22;95.06;99793.41;5021125;28;20288;-66
2021/12/26 07:00:58;;;;;;;10.95;5.53;;;3.20;99.90;;;3.27;95.34;99796.56;5020207;28;20691;-69
2021/12/26 07:03:25;;;;;;;8.80;5.53;;;3.30;99.90;;;3.25;94.98;99793.25;5020993;28;20202;-68
2021/12/26 07:05:52;;;;;;;14.13;6.78;;;3.30;99.90;;;3.30;95.08;99788.69;5031295;28;20229;-68
2021/12/26 07:08:19;;;;;;;8.63;5.47;;;3.30;99.90;;;3.33;95.10;99801.38;5022581;28;20203;-66
2021/12/26 07:10:45;;;;;;;13.02;5.60;;;3.30;99.90;;;3.31;95.55;99798.06;5032927;28;20206;-66
2021/12/26 07:13:12;;;;;;;6.85;4.57;;;3.30;99.90;;;3.28;94.89;99796.47;5028397;28;20216;-68
2021/12/26 07:15:39;;;;;;;10.18;6.20;;;3.30;99.90;;;3.27;95.23;99796.56;5012126;28;20707;-66
2021/12/26 07:18:07;;;;;;;12.45;6.95;;;3.30;99.90;;;3.32;95.37;99798.00;5013485;28;20671;-67
2021/12/26 07:20:34;;;;;;;8.00;5.03;;;3.30;99.90;;;3.34;95.70;99801.31;5010851;28;20571;-67
2021/12/26 07:23:01;;;;;;;9.73;6.22;;;3.40;99.90;;;3.37;95.50;99808.03;5033124;28;20234;-66
2021/12/26 07:25:27;;;;;;;11.13;6.40;;;3.40;99.90;;;3.34;95.55;99810.78;5029033;28;20721;-65
2021/12/26 07:27:54;;;;;;;11.77;6.68;;;3.30;99.90;;;3.38;96.07;99807.13;5032050;28;20209;-66
2021/12/26 07:30:21;;;;;;;11.38;6.10;;;3.40;99.90;;;3.37;95.51;99808.88;5032999;28;20202;-68
2021/12/26 07:32:48;;;;;;;18.25;8.25;;;3.40;99.90;;;3.39;95.47;99811.34;5030511;28;20194;-68
2021/12/26 07:35:15;;;;;;;12.50;6.78;;;3.40;99.90;;;3.42;94.49;99821.50;5031730;28;20636;-67
2021/12/26 07:37:42;;;;;;;12.75;6.93;;;3.40;99.90;;;3.38;95.14;99815.69;5046247;22;20540;-64
2021/12/26 07:40:10;;;;;;;13.52;6.93;;;3.40;99.90;;;3.31;95.15;99810.94;5052335;28;20208;-64
2021/12/26 07:42:37;;;;;;;14.10;6.72;;;3.30;99.90;;;3.25;95.91;99819.03;5052223;28;20201;-64
2021/12/26 07:45:04;;;;;;;10.45;6.40;;;3.20;99.90;;;3.20;96.51;99818.44;5032909;28;20198;-64
2021/12/26 07:47:31;;;;;;;12.13;7.32;;;3.20;99.90;;;3.12;97.06;99819.72;5050334;28;20217;-64
2021/12/26 07:49:59;;;;;;;14.70;7.72;;;3.10;99.90;;;3.14;97.15;99822.19;5033685;28;20201;-65
2021/12/26 07:52:30;;;;;;;13.75;7.72;;;3.10;99.90;;;3.17;97.23;99816.03;5049875;28;20677;-65
2021/12/26 07:54:58;;;;;;;9.93;4.78;;;3.20;99.90;;;3.19;96.47;99822.78;5051327;28;20296;-64
2021/12/26 07:57:25;;;;;;;12.40;7.13;;;3.20;99.90;;;3.15;96.63;99822.09;5051947;28;20225;-65
2021/12/26 07:59:52;;;;;;;16.20;7.47;;;3.20;99.90;;;3.21;96.05;99828.69;5050964;28;20672;-65
2021/12/26 08:02:20;;;;;;;15.95;8.45;;;3.20;99.90;;;3.30;96.44;99827.34;5052674;28;20205;-65
2021/12/26 08:04:48;;;;;;;15.57;7.82;;;3.30;99.90;;;3.33;96.37;99834.91;5051768;28;20202;-66
2021/12/26 08:07:15;;;;;;;16.08;6.20;;;3.40;99.90;;;3.28;96.39;99830.00;5044136;28;20221;-65
2021/12/26 08:09:42;;;;;;;14.75;7.95;;;3.30;99.90;;;3.24;96.33;99827.69;5051001;28;20656;-66
2021/12/26 08:12:09;;;;;;;11.60;6.95;;;3.20;99.90;;;3.24;96.72;99827.69;5052515;28;20292;-65
2021/12/26 08:14:37;;;;;;;16.70;7.38;;;3.20;99.90;;;3.21;97.34;99828.69;5050769;28;20197;-65
2021/12/26 08:17:04;;;;;;;18.42;9.75;;;3.20;99.90;;;3.19;97.36;99820.22;5022901;28;20232;-65
2021/12/26 08:19:32;;;;;;;15.75;7.57;;;3.20;99.90;;;3.30;97.38;99827.34;5051512;28;20652;-65
2021/12/26 08:22:00;;;;;;;14.38;6.72;;;3.30;99.90;;;3.33;97.44;99834.91;4991792;28;20293;-63
2021/12/26 08:24:26;;;;;;;13.50;7.30;;;3.30;99.90;;;3.32;96.53;99831.50;5042674;28;20202;-63
2021/12/26 08:26:54;;;;;;;12.68;6.35;;;3.30;99.90;;;3.29;96.78;99834.25;5048373;28;20221;-63
2021/12/26 08:29:23;;;;;;;12.00;7.20;;;3.20;99.90;;;3.27;97.21;99827.50;5045533;28;20661;-64
2021/12/26 08:31:55;;;;;;;15.52;7.70;;;3.30;99.90;;;3.30;96.72;99832.50;5051136;28;20212;-65
2021/12/26 08:34:23;;;;;;;12.07;6.68;;;3.30;99.90;;;3.30;97.46;99830.75;5051224;28;20744;-63
2021/12/26 08:36:58;;;;;;;14.50;7.97;;;3.30;99.90;;;3.26;96.67;99833.59;5026356;28;20327;-63
2021/12/26 08:39:35;;;;;;;15.35;7.78;;;3.30;99.90;;;3.23;97.17;99831.16;5051783;28;20201;-65
2021/12/26 08:42:03;;;;;;;16.30;8.30;;;3.20;99.90;;;3.21;97.57;99827.84;5016144;28;20669;-65
2021/12/26 08:44:33;;;;;;;14.10;6.47;;;3.30;99.90;;;3.15;97.62;99839.34;5049273;28;20224;-64
2021/12/26 08:47:00;;;;;;;14.18;8.57;;;3.20;99.90;;;3.19;98.16;99840.81;5049987;28;20252;-65
2021/12/26 08:49:27;;;;;;;13.32;7.00;;;3.20;99.90;;;3.23;98.21;99833.75;5029759;28;20284;-65
2021/12/26 08:51:54;;;;;;;12.40;7.05;;;3.20;99.90;;;3.25;97.94;99834.50;5045276;28;20733;-64
2021/12/26 08:54:24;;;;;;;14.63;7.53;;;3.30;99.90;;;3.32;98.67;99838.41;5041756;28;20194;-64
2021/12/26 08:56:52;;;;;;;14.85;8.10;;;3.30;99.90;;;3.42;99.31;99835.25;5028433;28;20233;-65
2021/12/26 08:59:20;;;;;;;14.60;6.85;;;3.50;99.90;;;3.58;99.23;99848.94;5029993;28;20233;-64
2021/12/26 09:01:47;;;;;;;12.10;6.55;;;3.60;99.90;;;3.70;98.38;99839.69;5044063;28;20202;-65
2021/12/26 09:04:15;;;;;;;10.45;6.53;;;3.80;99.90;;;3.77;96.32;99841.00;5048589;28;20201;-64
2021/12/26 09:06:42;;;;;;;12.52;6.47;;;3.80;99.90;;;3.78;95.90;99840.94;5050618;28;20278;-65
2021/12/26 09:09:11;;;;;;;14.00;6.90;;;3.80;99.90;;;3.73;95.18;99844.66;5045821;28;20232;-64
2021/12/26 09:11:38;;;;;;;14.82;6.75;;;3.80;99.90;;;3.62;95.11;99841.88;5048376;28;20665;-65
2021/12/26 09:14:04;;;;;;;13.07;7.05;;;3.70;99.90;;;3.63;95.14;99846.94;5050223;28;20198;-66
2021/12/26 09:16:34;;;;;;;14.75;7.10;;;3.70;99.90;;;3.56;95.94;99848.19;5046010;28;20248;-65
2021/12/26 09:19:04;;;;;;;11.57;6.80;;;3.60;99.90;;;3.53;96.21;99853.53;5051292;28;20319;-64
2021/12/26 09:21:32;;;;;;;16.38;7.35;;;3.50;99.90;;;3.51;97.13;99857.09;5049352;28;20209;-63
2021/12/26 09:23:59;;;;;;;14.10;7.15;;;3.50;99.90;;;3.53;96.68;99850.13;5050203;28;20202;-63
2021/12/26 09:26:26;;;;;;;12.02;6.72;;;3.50;99.90;;;3.59;96.90;99854.94;5048360;28;20229;-63
2021/12/26 09:28:52;;;;;;;11.15;6.70;;;3.60;99.90;;;3.62;96.37;99850.41;5048036;28;20233;-63
2021/12/26 09:31:19;;;;;;;13.15;7.05;;;3.70;99.90;;;3.69;96.04;99862.06;5050720;28;20205;-63
2021/12/26 09:33:46;;;;;;;14.88;7.10;;;3.70;99.90;;;3.72;96.14;99861.06;5048988;28;20198;-63
2021/12/26 09:36:13;;;;;;;12.88;6.10;;;3.80;99.90;;;3.68;96.33;99862.16;5046467;28;20229;-63
2021/12/26 09:38:40;;;;;;;18.50;7.70;;;3.70;99.90;;;3.61;96.46;99856.50;5013800;28;20197;-62
2021/12/26 09:41:08;;;;;;;14.40;7.45;;;3.60;99.90;;;3.69;96.39;99866.38;5048209;28;20681;-63
2021/12/26 09:43:36;;;;;;;9.68;5.60;;;3.70;99.90;;;3.73;96.53;99862.72;5031752;28;21396;-63
2021/12/26 09:46:02;;;;;;;9.73;5.15;;;3.70;99.90;;;3.79;96.09;99863.22;5049702;28;20209;-64
2021/12/26 09:48:30;;;;;;;12.63;5.35;;;3.80;99.90;;;3.83;95.74;99863.88;5050143;28;20226;-64
2021/12/26 09:50:57;;;;;;;13.00;6.30;;;3.90;99.90;;;3.88;95.82;99860.13;5050302;28;20208;-63
2021/12/26 09:53:24;;;;;;;11.57;5.70;;;3.90;99.90;;;3.89;95.51;99855.78;5050825;28;20197;-62
2021/12/26 09:55:51;;;;;;;7.07;4.60;;;3.90;99.90;;;3.92;95.06;99861.59;5032431;28;20205;-61
2021/12/26 09:58:21;;;;;;;11.95;6.35;;;3.90;99.90;;;3.91;94.94;99851.38;5039328;28;20210;-62
2021/12/26 10:00:48;;;;;;;13.05;7.15;;;3.90;99.90;;;3.88;95.27;99847.22;5036995;28;20271;-60
2021/12/26 10:03:20;;;;;;;5.90;4.32;;;4.00;99.90;;;3.91;95.13;99847.06;5040452;28;20229;-63
2021/12/26 10:06:20;;;;;;;9.00;5.45;;;3.90;99.90;;;3.87;94.93;99840.41;5036768;28;20241;-61
2021/12/26 10:09:10;;;;;;;14.27;6.97;;;3.90;99.90;;;3.85;95.64;99841.41;4998809;28;20193;-63
2021/12/26 10:11:48;;;;;;;13.25;7.18;;;3.90;99.90;;;3.80;95.62;99839.09;5032637;28;20676;-63
2021/12/26 10:14:19;;;;;;;8.43;5.30;;;3.90;99.90;;;3.80;95.24;99827.94;5040962;28;20202;-63
2021/12/26 10:16:48;;;;;;;9.00;6.20;;;3.80;99.90;;;3.81;95.62;99824.44;5049041;28;20227;-62
2021/12/26 10:19:16;;;;;;;12.70;6.70;;;3.80;99.90;;;3.80;95.62;99820.19;5042963;28;20575;-62
2021/12/26 10:21:49;;;;;;;8.38;5.35;;;3.80;99.90;;;3.87;95.50;99813.75;5027759;28;20288;-63
2021/12/26 10:24:29;;;;;;;14.52;6.32;;;3.90;99.90;;;3.95;95.77;99811.56;5038801;28;20688;-62
2021/12/26 10:27:10;;;;;;;14.43;6.47;;;4.00;99.90;;;4.00;95.52;99813.88;5041547;28;20244;-64
2021/12/26 10:29:46;;;;;;;9.40;4.50;;;4.00;99.90;;;4.12;95.53;99813.16;5039719;28;20583;-63
2021/12/26 10:32:20;;;;;;;14.20;6.75;;;4.20;99.90;;;4.07;95.31;99813.44;5039552;28;20280;-64
2021/12/26 10:34:54;;;;;;;7.60;4.80;;;4.10;99.90;;;4.12;94.87;99808.84;5033070;28;20205;-64
2021/12/26 10:37:32;;;;;;;10.45;5.20;;;4.20;99.90;;;4.14;95.01;99817.31;5048299;28;20224;-65
2021/12/26 10:40:05;;;;;;;13.18;6.72;;;4.10;99.90;;;4.13;95.34;99812.25;5048873;28;20201;-66
2021/12/26 10:42:38;;;;;;;13.85;6.43;;;4.10;99.90;;;4.19;94.73;99812.75;5048355;28;20592;-66
2021/12/26 10:45:10;;;;;;;11.07;6.70;;;4.20;99.90;;;4.15;95.02;99819.00;5043697;28;20305;-66
2021/12/26 10:47:41;;;;;;;12.65;7.20;;;4.20;99.90;;;4.08;94.95;99827.16;5032708;28;20664;-66